Time;durP1;ratioP1;P1;durP2;ratioP2;P2;SDS_P1;SDS_P2;PMS_P1;PMS_P2;Temp;Humidity;BMP_temperature;BMP_pressure;BME280_temperature;BME280_humidity;BME280_pressure;Samples;Min_cycle;Max_cycle;Signal;HPM_P1;HPM_P2
2023/12/12 00:02:09;;;;;;;;;;;;;;;13.13;nan;100357.13;5038069;28;19956;-84
2023/12/12 00:04:34;;;;;;;;;;;;;;;13.12;nan;100366.28;5037101;28;19936;-84
2023/12/12 00:07:00;;;;;;;;;;;;;;;13.13;nan;100365.19;5037282;28;19924;-83
2023/12/12 00:09:26;;;;;;;;;;;;;;;13.13;nan;100368.69;5039990;28;19928;-84
2023/12/12 00:11:52;;;;;;;;;;;;;;;13.14;nan;100377.56;5039489;28;19924;-83
2023/12/12 00:14:17;;;;;;;;;;;;;;;13.14;nan;100382.94;5043399;28;20407;-83
2023/12/12 00:16:43;;;;;;;;;;;;;;;13.13;nan;100392.91;5024318;28;20000;-84
2023/12/12 00:19:08;;;;;;;;;;;;;;;13.11;nan;100389.69;5020805;28;19925;-83
2023/12/12 00:21:34;;;;;;;;;;;;;;;13.06;nan;100389.66;5039339;28;20537;-84
2023/12/12 00:23:59;;;;;;;;;;;;;;;13.07;nan;100390.47;5042857;28;19923;-83
2023/12/12 00:26:24;;;;;;;;;;;;;;;13.06;nan;100400.44;5022854;28;20442;-84
2023/12/12 00:28:50;;;;;;;;;;;;;;;13.04;nan;100404.47;5036065;28;20001;-84
2023/12/12 00:31:16;;;;;;;;;;;;;;;13.01;nan;100412.00;5041336;28;19979;-83
2023/12/12 00:33:41;;;;;;;;;;;;;;;13.00;nan;100412.28;5042746;28;19925;-83
2023/12/12 00:36:06;;;;;;;;;;;;;;;13.00;nan;100406.91;5028269;28;19978;-83
2023/12/12 00:38:32;;;;;;;;;;;;;;;12.99;nan;100422.22;5041864;28;20011;-84
2023/12/12 00:40:58;;;;;;;;;;;;;;;13.01;nan;100430.03;5037314;28;19953;-83
2023/12/12 00:43:24;;;;;;;;;;;;;;;13.02;nan;100431.63;5026983;28;20803;-84
2023/12/12 00:45:49;;;;;;;;;;;;;;;13.02;nan;100421.69;5042212;28;19917;-83
2023/12/12 00:48:17;;;;;;;;;;;;;;;13.03;nan;100419.81;5037288;28;20005;-84
2023/12/12 00:50:42;;;;;;;;;;;;;;;13.00;nan;100426.53;5034091;28;19925;-83
2023/12/12 00:53:08;;;;;;;;;;;;;;;13.00;nan;100429.22;5038181;28;20980;-83
2023/12/12 00:55:33;;;;;;;;;;;;;;;13.04;nan;100444.81;5040848;28;19924;-84
2023/12/12 00:57:58;;;;;;;;;;;;;;;13.01;nan;100455.03;5036506;28;19990;-83
2023/12/12 01:00:24;;;;;;;;;;;;;;;13.01;nan;100460.41;5036420;28;19925;-84
2023/12/12 01:02:49;;;;;;;;;;;;;;;13.00;nan;100474.94;5040486;28;20427;-83
2023/12/12 01:05:15;;;;;;;;;;;;;;;12.99;nan;100473.31;5040449;28;19928;-83
2023/12/12 01:07:40;;;;;;;;;;;;;;;12.99;nan;100475.22;5039912;28;20408;-83
2023/12/12 01:10:05;;;;;;;;;;;;;;;13.01;nan;100483.81;5040010;28;20379;-83
2023/12/12 01:12:33;;;;;;;;;;;;;;;12.99;nan;100484.09;5037639;28;20206;-83
2023/12/12 01:14:59;;;;;;;;;;;;;;;12.99;nan;100491.34;5039842;28;20670;-84
2023/12/12 01:17:25;;;;;;;;;;;;;;;12.95;nan;100490.28;5044418;28;19924;-84
2023/12/12 01:19:51;;;;;;;;;;;;;;;12.91;nan;100500.75;5038872;28;20519;-84
2023/12/12 01:22:16;;;;;;;;;;;;;;;12.89;nan;100500.22;5040617;28;19931;-84
2023/12/12 01:24:41;;;;;;;;;;;;;;;12.87;nan;100502.38;5041853;28;20000;-83
2023/12/12 01:27:08;;;;;;;;;;;;;;;12.88;nan;100512.03;5044731;28;20273;-83
2023/12/12 01:29:34;;;;;;;;;;;;;;;12.85;nan;100512.59;5021635;28;19920;-83
2023/12/12 01:31:59;;;;;;;;;;;;;;;12.85;nan;100514.47;5038633;28;20270;-84
2023/12/12 01:34:25;;;;;;;;;;;;;;;12.86;nan;100514.19;5039818;28;19924;-84
2023/12/12 01:36:50;;;;;;;;;;;;;;;12.87;nan;100509.63;5041440;28;20312;-83
2023/12/12 01:39:15;;;;;;;;;;;;;;;12.87;nan;100506.94;5039997;28;20016;-83
2023/12/12 01:41:41;;;;;;;;;;;;;;;12.86;nan;100508.81;5039348;28;19924;-84
2023/12/12 01:44:06;;;;;;;;;;;;;;;12.86;nan;100511.50;5033324;28;20538;-84
2023/12/12 01:46:35;;;;;;;;;;;;;;;12.87;nan;100525.75;5037321;28;19946;-83
2023/12/12 01:49:00;;;;;;;;;;;;;;;12.89;nan;100528.97;5033643;28;19916;-84
2023/12/12 01:51:26;;;;;;;;;;;;;;;12.90;nan;100536.78;5040635;28;20389;-84
2023/12/12 01:53:52;;;;;;;;;;;;;;;12.88;nan;100530.88;5036973;28;20392;-84
2023/12/12 01:56:17;;;;;;;;;;;;;;;12.89;nan;100539.75;5039836;28;20418;-83
2023/12/12 01:58:44;;;;;;;;;;;;;;;12.89;nan;100545.91;5037803;28;19920;-84
2023/12/12 02:01:09;;;;;;;;;;;;;;;12.89;nan;100545.13;5039828;28;19932;-84
2023/12/12 02:03:35;;;;;;;;;;;;;;;12.90;nan;100544.03;5038039;28;20380;-84
2023/12/12 02:06:01;;;;;;;;;;;;;;;12.86;nan;100556.41;5036803;28;19923;-83
2023/12/12 02:08:27;;;;;;;;;;;;;;;12.84;nan;100545.94;5040595;28;20299;-83
2023/12/12 02:10:53;;;;;;;;;;;;;;;12.87;nan;100553.44;5034986;28;19921;-83
2023/12/12 02:13:18;;;;;;;;;;;;;;;12.86;nan;100554.53;5040927;28;19924;-84
2023/12/12 02:15:44;;;;;;;;;;;;;;;12.85;nan;100550.22;5038265;28;19925;-84
2023/12/12 02:18:09;;;;;;;;;;;;;;;12.84;nan;100559.38;5039139;28;19956;-83
2023/12/12 02:20:34;;;;;;;;;;;;;;;12.84;nan;100559.38;5037377;28;19986;-84
2023/12/12 02:22:59;;;;;;;;;;;;;;;12.84;nan;100553.19;5037173;28;20392;-84
2023/12/12 02:25:25;;;;;;;;;;;;;;;12.80;nan;100552.91;5040994;28;19921;-84
2023/12/12 02:27:50;;;;;;;;;;;;;;;12.80;nan;100552.13;5037260;28;19917;-83
2023/12/12 02:30:17;;;;;;;;;;;;;;;12.80;nan;100552.13;5042129;28;19940;-84
2023/12/12 02:32:42;;;;;;;;;;;;;;;12.82;nan;100549.97;5036712;28;19921;-84
2023/12/12 02:35:08;;;;;;;;;;;;;;;12.80;nan;100552.91;5039637;28;19947;-83
2023/12/12 02:37:33;;;;;;;;;;;;;;;12.81;nan;100553.72;5036195;28;19917;-83
2023/12/12 02:39:58;;;;;;;;;;;;;;;12.80;nan;100555.59;5040326;28;20702;-84
2023/12/12 02:42:24;;;;;;;;;;;;;;;12.81;nan;100554.53;5042368;28;20262;-84
2023/12/12 02:44:49;;;;;;;;;;;;;;;12.82;nan;100553.47;5040009;28;20380;-84
2023/12/12 02:47:14;;;;;;;;;;;;;;;12.82;nan;100560.72;5032258;28;20488;-84
2023/12/12 02:49:40;;;;;;;;;;;;;;;12.79;nan;100556.69;5041463;28;20480;-84
2023/12/12 02:52:05;;;;;;;;;;;;;;;12.75;nan;100558.31;5024441;28;20019;-83
2023/12/12 02:54:30;;;;;;;;;;;;;;;12.75;nan;100563.69;5036777;28;19921;-83
2023/12/12 02:56:56;;;;;;;;;;;;;;;12.76;nan;100564.47;5042276;28;20384;-84
2023/12/12 02:59:21;;;;;;;;;;;;;;;12.80;nan;100565.56;5037508;28;20266;-84
2023/12/12 03:01:47;;;;;;;;;;;;;;;12.84;nan;100563.94;5045246;28;20393;-84
2023/12/12 03:04:12;;;;;;;;;;;;;;;12.86;nan;100572.53;5035819;28;20534;-84
2023/12/12 03:06:37;;;;;;;;;;;;;;;12.86;nan;100573.34;5036610;28;19943;-84
2023/12/12 03:09:02;;;;;;;;;;;;;;;12.85;nan;100566.38;5039799;28;19921;-83
2023/12/12 03:11:28;;;;;;;;;;;;;;;12.85;nan;100570.94;5036563;28;19917;-83
2023/12/12 03:13:53;;;;;;;;;;;;;;;12.84;nan;100572.81;5039184;28;19921;-84
2023/12/12 03:16:18;;;;;;;;;;;;;;;12.85;nan;100577.13;5036944;28;19917;-84
2023/12/12 03:18:44;;;;;;;;;;;;;;;12.87;nan;100574.16;5038860;28;19917;-84
2023/12/12 03:21:09;;;;;;;;;;;;;;;12.88;nan;100575.78;5034712;28;19921;-83
2023/12/12 03:23:34;;;;;;;;;;;;;;;12.87;nan;100564.22;5037083;28;19928;-84
2023/12/12 03:26:07;;;;;;;;;;;;;;;12.89;nan;100577.38;5039873;28;19924;-84
2023/12/12 03:28:33;;;;;;;;;;;;;;;12.90;nan;100581.69;5033799;28;20554;-84
2023/12/12 03:30:58;;;;;;;;;;;;;;;12.86;nan;100578.72;5038293;28;19956;-83
2023/12/12 03:33:25;;;;;;;;;;;;;;;12.86;nan;100588.69;5042525;28;19921;-83
2023/12/12 03:35:50;;;;;;;;;;;;;;;12.85;nan;100587.88;5021857;28;20100;-83
2023/12/12 03:38:15;;;;;;;;;;;;;;;12.86;nan;100597.56;5042505;28;20093;-84
2023/12/12 03:40:41;;;;;;;;;;;;;;;12.84;nan;100597.00;5039248;28;19923;-83
2023/12/12 03:43:07;;;;;;;;;;;;;;;12.83;nan;100600.78;5039615;28;19920;-84
2023/12/12 03:45:33;;;;;;;;;;;;;;;12.83;nan;100603.47;5036665;28;19928;-84
2023/12/12 03:47:58;;;;;;;;;;;;;;;12.86;nan;100602.13;5037128;28;19921;-84
2023/12/12 03:50:23;;;;;;;;;;;;;;;12.85;nan;100601.31;5041050;28;20041;-84
2023/12/12 03:52:49;;;;;;;;;;;;;;;12.87;nan;100595.66;5041743;28;20011;-84
2023/12/12 03:55:14;;;;;;;;;;;;;;;12.89;nan;100593.53;5043426;28;20468;-83
2023/12/12 03:57:39;;;;;;;;;;;;;;;12.90;nan;100595.94;5043561;28;20755;-84
2023/12/12 04:00:07;;;;;;;;;;;;;;;12.90;nan;100585.19;5038059;28;20280;-83
2023/12/12 04:02:32;;;;;;;;;;;;;;;12.89;nan;100588.94;5041465;28;19920;-83
2023/12/12 04:04:57;;;;;;;;;;;;;;;12.88;nan;100592.72;5042444;28;19917;-83
2023/12/12 04:07:23;;;;;;;;;;;;;;;12.86;nan;100592.16;5041802;28;19921;-84
2023/12/12 04:09:48;;;;;;;;;;;;;;;12.85;nan;100603.19;5041565;28;19921;-84
2023/12/12 04:12:13;;;;;;;;;;;;;;;12.83;nan;100594.59;5037664;28;19996;-83
2023/12/12 04:14:39;;;;;;;;;;;;;;;12.83;nan;100602.66;5037625;28;19920;-83
2023/12/12 04:17:04;;;;;;;;;;;;;;;12.84;nan;100601.59;5022097;28;19920;-84
2023/12/12 04:19:29;;;;;;;;;;;;;;;12.84;nan;100601.59;5041421;28;19916;-83
2023/12/12 04:21:54;;;;;;;;;;;;;;;12.84;nan;100606.97;5038346;28;20120;-84
2023/12/12 04:24:20;;;;;;;;;;;;;;;12.84;nan;100607.78;5040351;28;19967;-84
2023/12/12 04:26:45;;;;;;;;;;;;;;;12.86;nan;100612.88;5038420;28;19985;-84
2023/12/12 04:29:10;;;;;;;;;;;;;;;12.87;nan;100615.28;5040333;28;19920;-83
2023/12/12 04:31:36;;;;;;;;;;;;;;;12.91;nan;100624.44;5036737;28;19975;-84
2023/12/12 04:34:01;;;;;;;;;;;;;;;12.90;nan;100622.81;5040053;28;19970;-83
2023/12/12 04:36:27;;;;;;;;;;;;;;;12.91;nan;100621.75;5037298;28;20007;-84
2023/12/12 04:38:52;;;;;;;;;;;;;;;12.91;nan;100624.44;5043271;28;19916;-84
2023/12/12 04:41:17;;;;;;;;;;;;;;;12.93;nan;100626.88;5036752;28;19928;-84
2023/12/12 04:43:43;;;;;;;;;;;;;;;12.92;nan;100631.44;5038492;28;19928;-84
2023/12/12 04:46:09;;;;;;;;;;;;;;;12.92;nan;100636.00;5039952;28;19928;-84
2023/12/12 04:48:35;;;;;;;;;;;;;;;12.92;nan;100631.44;5037775;28;19916;-85
2023/12/12 04:51:02;;;;;;;;;;;;;;;12.95;nan;100630.13;5036425;28;19924;-84
2023/12/12 04:53:27;;;;;;;;;;;;;;;12.97;nan;100628.78;5036337;28;20392;-84
2023/12/12 04:55:52;;;;;;;;;;;;;;;12.99;nan;100642.75;5041038;28;19924;-84
2023/12/12 04:58:18;;;;;;;;;;;;;;;12.98;nan;100641.16;5041953;28;20391;-84
2023/12/12 05:00:43;;;;;;;;;;;;;;;12.98;nan;100640.34;5039548;28;19917;-84
2023/12/12 05:03:08;;;;;;;;;;;;;;;12.96;nan;100632.53;5037479;28;20995;-84
2023/12/12 05:05:34;;;;;;;;;;;;;;;12.94;nan;100629.31;5036015;28;19917;-84
2023/12/12 05:07:59;;;;;;;;;;;;;;;12.95;nan;100630.94;5038033;28;19917;-83
2023/12/12 05:10:24;;;;;;;;;;;;;;;12.95;nan;100636.31;5041440;28;19924;-84
2023/12/12 05:12:50;;;;;;;;;;;;;;;12.95;nan;100630.13;5038276;28;20012;-84
2023/12/12 05:15:15;;;;;;;;;;;;;;;12.96;nan;100626.34;5025750;28;19925;-84
2023/12/12 05:17:40;;;;;;;;;;;;;;;12.96;nan;100627.16;5029578;28;19960;-84
2023/12/12 05:20:09;;;;;;;;;;;;;;;12.93;nan;100627.69;5038133;28;19943;-84
2023/12/12 05:22:34;;;;;;;;;;;;;;;12.93;nan;100626.88;5037413;28;19917;-83
2023/12/12 05:24:59;;;;;;;;;;;;;;;12.90;nan;100636.28;5039547;28;19917;-84
2023/12/12 05:27:25;;;;;;;;;;;;;;;12.89;nan;100645.41;5041476;28;19917;-83
2023/12/12 05:29:50;;;;;;;;;;;;;;;12.90;nan;100655.09;5042349;28;20344;-84
2023/12/12 05:32:15;;;;;;;;;;;;;;;12.91;nan;100654.03;5033021;28;20409;-85
2023/12/12 05:34:41;;;;;;;;;;;;;;;12.89;nan;100658.06;5039023;28;20545;-84
2023/12/12 05:37:08;;;;;;;;;;;;;;;12.88;nan;100661.81;5041163;28;20402;-84
2023/12/12 05:39:33;;;;;;;;;;;;;;;12.85;nan;100667.72;5037256;28;19928;-84
2023/12/12 05:41:58;;;;;;;;;;;;;;;12.87;nan;100668.28;5039099;28;20039;-84
2023/12/12 05:44:24;;;;;;;;;;;;;;;12.86;nan;100659.41;5039958;28;19928;-84
2023/12/12 05:46:50;;;;;;;;;;;;;;;12.87;nan;100668.28;5035251;28;19916;-84
2023/12/12 05:49:16;;;;;;;;;;;;;;;12.87;nan;100679.84;5023150;28;19928;-83
2023/12/12 05:51:41;;;;;;;;;;;;;;;12.89;nan;100683.06;5039359;28;19921;-84
2023/12/12 05:54:11;;;;;;;;;;;;;;;12.93;nan;100686.06;5037846;28;20331;-84
2023/12/12 05:56:37;;;;;;;;;;;;;;;12.93;nan;100689.56;5039772;28;19970;-83
2023/12/12 05:59:02;;;;;;;;;;;;;;;12.95;nan;100694.66;5041369;28;19925;-84
2023/12/12 06:01:27;;;;;;;;;;;;;;;12.97;nan;100698.69;5038779;28;19917;-84
2023/12/12 06:03:53;;;;;;;;;;;;;;;12.99;nan;100701.13;5031822;28;19921;-85
2023/12/12 06:06:20;;;;;;;;;;;;;;;12.97;nan;100696.00;5037914;28;19921;-84
2023/12/12 06:08:46;;;;;;;;;;;;;;;12.98;nan;100702.19;5038101;28;19987;-84
2023/12/12 06:11:11;;;;;;;;;;;;;;;12.97;nan;100704.06;5037637;28;19921;-84
2023/12/12 06:13:36;;;;;;;;;;;;;;;12.96;nan;100710.53;5021873;28;19927;-84
2023/12/12 06:16:02;;;;;;;;;;;;;;;12.97;nan;100706.75;5039555;28;20063;-84
2023/12/12 06:18:27;;;;;;;;;;;;;;;12.96;nan;100715.91;5034554;28;20423;-84
2023/12/12 06:20:53;;;;;;;;;;;;;;;12.95;nan;100710.78;5037541;28;20035;-84
2023/12/12 06:23:18;;;;;;;;;;;;;;;12.95;nan;100714.28;5041443;28;19921;-84
2023/12/12 06:25:43;;;;;;;;;;;;;;;12.94;nan;100717.25;5037740;28;19963;-84
2023/12/12 06:28:09;;;;;;;;;;;;;;;12.93;nan;100718.31;5041336;28;19925;-84
2023/12/12 06:30:34;;;;;;;;;;;;;;;12.90;nan;100718.81;5038748;28;20281;-83
2023/12/12 06:32:59;;;;;;;;;;;;;;;12.93;nan;100734.47;5036952;28;19916;-84
2023/12/12 06:35:25;;;;;;;;;;;;;;;12.93;nan;100729.06;5034649;28;20544;-83
2023/12/12 06:37:51;;;;;;;;;;;;;;;12.93;nan;100739.84;5036889;28;19916;-84
2023/12/12 06:40:16;;;;;;;;;;;;;;;12.91;nan;100729.31;5036764;28;20043;-83
2023/12/12 06:42:43;;;;;;;;;;;;;;;12.89;nan;100733.34;5024314;28;20010;-84
2023/12/12 06:45:10;;;;;;;;;;;;;;;12.87;nan;100725.53;5034455;28;19916;-83
2023/12/12 06:47:35;;;;;;;;;;;;;;;12.85;nan;100735.75;5037756;28;19921;-83
2023/12/12 06:50:03;;;;;;;;;;;;;;;12.84;nan;100736.81;5038504;28;19934;-84
2023/12/12 06:52:28;;;;;;;;;;;;;;;12.82;nan;100733.59;5037611;28;19928;-83
2023/12/12 06:54:53;;;;;;;;;;;;;;;12.83;nan;100743.28;5036054;28;19921;-84
2023/12/12 06:57:19;;;;;;;;;;;;;;;12.83;nan;100732.53;5034954;28;20011;-84
2023/12/12 06:59:45;;;;;;;;;;;;;;;12.84;nan;100736.03;5034685;28;19921;-84
2023/12/12 07:02:10;;;;;;;;;;;;;;;12.82;nan;100743.53;5037665;28;19932;-84
2023/12/12 07:04:36;;;;;;;;;;;;;;;12.81;nan;100737.34;5033223;28;19922;-84
2023/12/12 07:07:01;;;;;;;;;;;;;;;12.81;nan;100745.44;5031457;28;19936;-84
2023/12/12 07:09:27;;;;;;;;;;;;;;;12.79;nan;100752.94;5033168;28;19925;-84
2023/12/12 07:11:53;;;;;;;;;;;;;;;12.78;nan;100762.09;5032221;28;20344;-84
2023/12/12 07:14:18;;;;;;;;;;;;;;;12.75;nan;100759.94;5037078;28;19917;-83
2023/12/12 07:16:43;;;;;;;;;;;;;;;12.76;nan;100760.75;5037567;28;19921;-84
2023/12/12 07:19:09;;;;;;;;;;;;;;;12.75;nan;100765.31;5033613;28;19932;-85
2023/12/12 07:21:38;;;;;;;;;;;;;;;12.75;nan;100776.06;5033666;28;19917;-83
2023/12/12 07:24:04;;;;;;;;;;;;;;;12.74;nan;100766.34;5035088;28;19920;-83
2023/12/12 07:26:29;;;;;;;;;;;;;;;12.73;nan;100775.47;5041503;28;19921;-84
2023/12/12 07:28:54;;;;;;;;;;;;;;;12.74;nan;100768.22;5041783;28;19924;-84
2023/12/12 07:31:20;;;;;;;;;;;;;;;12.74;nan;100779.78;5040463;28;19928;-85
2023/12/12 07:33:45;;;;;;;;;;;;;;;12.74;nan;100771.72;5035564;28;19956;-84
2023/12/12 07:36:10;;;;;;;;;;;;;;;12.75;nan;100780.59;5037349;28;20016;-84
2023/12/12 07:38:36;;;;;;;;;;;;;;;12.73;nan;100778.16;5023309;28;20339;-84
2023/12/12 07:41:01;;;;;;;;;;;;;;;12.73;nan;100777.38;5036179;28;19984;-84
2023/12/12 07:43:26;;;;;;;;;;;;;;;12.73;nan;100780.84;5035808;28;19980;-83
2023/12/12 07:45:52;;;;;;;;;;;;;;;12.71;nan;100775.75;5034149;28;19917;-84
2023/12/12 07:48:18;;;;;;;;;;;;;;;12.74;nan;100777.09;5034397;28;20012;-84
2023/12/12 07:50:43;;;;;;;;;;;;;;;12.75;nan;100781.44;5040774;28;19925;-84
2023/12/12 07:53:09;;;;;;;;;;;;;;;12.75;nan;100780.59;5036593;28;19943;-84
2023/12/12 07:55:35;;;;;;;;;;;;;;;12.73;nan;100780.06;5033517;28;19917;-84
2023/12/12 07:58:02;;;;;;;;;;;;;;;12.70;nan;100782.19;5034542;28;19921;-84
2023/12/12 08:00:28;;;;;;;;;;;;;;;12.68;nan;100783.53;5035966;28;20003;-84
2023/12/12 08:02:53;;;;;;;;;;;;;;;12.66;nan;100783.78;5040153;28;20051;-84
2023/12/12 08:05:18;;;;;;;;;;;;;;;12.67;nan;100789.97;5035036;28;19917;-84
2023/12/12 08:07:44;;;;;;;;;;;;;;;12.66;nan;100786.47;5038377;28;19921;-85
2023/12/12 08:10:09;;;;;;;;;;;;;;;12.66;nan;100793.75;5039141;28;19924;-84
2023/12/12 08:12:34;;;;;;;;;;;;;;;12.66;nan;100788.38;5025939;28;19917;-84
2023/12/12 08:15:00;;;;;;;;;;;;;;;12.68;nan;100786.22;5034594;28;20536;-84
2023/12/12 08:17:25;;;;;;;;;;;;;;;12.69;nan;100785.97;5037927;28;19988;-84
2023/12/12 08:19:51;;;;;;;;;;;;;;;12.71;nan;100785.69;5038628;28;19926;-85
2023/12/12 08:22:17;;;;;;;;;;;;;;;12.71;nan;100785.69;5037486;28;19925;-84
2023/12/12 08:24:43;;;;;;;;;;;;;;;12.71;nan;100788.38;5033996;28;19920;-84
2023/12/12 08:27:09;;;;;;;;;;;;;;;12.69;nan;100791.34;5039158;28;20015;-84
2023/12/12 08:29:35;;;;;;;;;;;;;;;12.69;nan;100799.41;5037156;28;20349;-84
2023/12/12 08:32:00;;;;;;;;;;;;;;;12.69;nan;100798.59;5035011;28;19929;-84
2023/12/12 08:34:25;;;;;;;;;;;;;;;12.68;nan;100803.16;5032015;28;19933;-84
2023/12/12 08:36:51;;;;;;;;;;;;;;;12.68;nan;100800.47;5032546;28;20380;-84
2023/12/12 08:39:16;;;;;;;;;;;;;;;12.69;nan;100807.47;5033574;28;19921;-84
2023/12/12 08:41:41;;;;;;;;;;;;;;;12.70;nan;100805.59;5016722;28;20516;-84
2023/12/12 08:44:07;;;;;;;;;;;;;;;12.70;nan;100810.97;5037131;28;19928;-85
2023/12/12 08:46:32;;;;;;;;;;;;;;;12.69;nan;100809.34;5038933;28;19924;-84
2023/12/12 08:48:58;;;;;;;;;;;;;;;12.69;nan;100806.66;5042517;28;19920;-85
2023/12/12 08:51:24;;;;;;;;;;;;;;;12.71;nan;100799.13;5033249;28;19921;-85
2023/12/12 08:53:51;;;;;;;;;;;;;;;12.72;nan;100798.06;5040746;28;19916;-85
2023/12/12 08:56:17;;;;;;;;;;;;;;;12.74;nan;100795.13;5038673;28;20007;-84
2023/12/12 08:58:47;;;;;;;;;;;;;;;12.73;nan;100794.31;5038691;28;19948;-84
2023/12/12 09:01:13;;;;;;;;;;;;;;;12.74;nan;100797.81;5042722;28;19975;-84
2023/12/12 09:03:39;;;;;;;;;;;;;;;12.73;nan;100801.56;5037778;28;19983;-84
2023/12/12 09:06:04;;;;;;;;;;;;;;;12.72;nan;100806.13;5034312;28;19928;-84
2023/12/12 09:08:30;;;;;;;;;;;;;;;12.71;nan;100808.00;5047250;28;19932;-84
2023/12/12 09:10:55;;;;;;;;;;;;;;;12.70;nan;100808.28;5034317;28;20503;-84
2023/12/12 09:13:20;;;;;;;;;;;;;;;12.70;nan;100808.28;5036972;28;20062;-84
2023/12/12 09:15:46;;;;;;;;;;;;;;;12.70;nan;100816.34;5034875;28;19917;-85
2023/12/12 09:18:11;;;;;;;;;;;;;;;12.70;nan;100817.16;5045968;28;19924;-84
2023/12/12 09:20:36;;;;;;;;;;;;;;;12.71;nan;100823.31;5045964;28;20339;-84
2023/12/12 09:23:01;;;;;;;;;;;;;;;12.72;nan;100819.56;5044764;28;20389;-84
2023/12/12 09:25:27;;;;;;;;;;;;;;;12.72;nan;100816.88;5042102;28;19924;-83
2023/12/12 09:27:52;;;;;;;;;;;;;;;12.71;nan;100829.50;5041335;28;20321;-84
2023/12/12 09:30:18;;;;;;;;;;;;;;;12.71;nan;100826.03;5036168;28;20377;-84
2023/12/12 09:32:43;;;;;;;;;;;;;;;12.69;nan;100826.28;5036738;28;19939;-84
2023/12/12 09:35:09;;;;;;;;;;;;;;;12.70;nan;100827.09;5040391;28;20003;-84
2023/12/12 09:37:34;;;;;;;;;;;;;;;12.69;nan;100826.28;5034812;28;20007;-84
2023/12/12 09:40:00;;;;;;;;;;;;;;;12.70;nan;100821.72;5039629;28;19982;-84
2023/12/12 09:42:29;;;;;;;;;;;;;;;12.70;nan;100829.78;5038519;28;19917;-84
2023/12/12 09:45:04;;;;;;;;;;;;;;;12.69;nan;100822.78;5036115;28;20034;-84
2023/12/12 09:47:30;;;;;;;;;;;;;;;12.68;nan;100826.53;5034797;28;19928;-84
2023/12/12 09:49:58;;;;;;;;;;;;;;;12.67;nan;100819.56;5037248;28;19921;-84
2023/12/12 09:52:24;;;;;;;;;;;;;;;12.66;nan;100823.31;5036416;28;19920;-83
2023/12/12 09:54:51;;;;;;;;;;;;;;;12.65;nan;100819.00;5036950;28;19917;-84
2023/12/12 09:57:18;;;;;;;;;;;;;;;12.64;nan;100812.81;5039395;28;20389;-84
2023/12/12 09:59:43;;;;;;;;;;;;;;;12.66;nan;100826.00;5036638;28;19921;-84
2023/12/12 10:02:13;;;;;;;;;;;;;;;12.64;nan;100818.19;5035797;28;20399;-84
2023/12/12 10:04:39;;;;;;;;;;;;;;;12.62;nan;100814.16;5035492;28;19952;-84
2023/12/12 10:07:07;;;;;;;;;;;;;;;12.61;nan;100812.53;5038541;28;19940;-84
2023/12/12 10:09:33;;;;;;;;;;;;;;;12.61;nan;100817.91;5016011;28;19923;-84
2023/12/12 10:11:59;;;;;;;;;;;;;;;12.60;nan;100821.66;5036839;28;19916;-84
2023/12/12 10:14:34;;;;;;;;;;;;;;;12.59;nan;100825.44;5037030;28;19928;-84
2023/12/12 10:17:06;;;;;;;;;;;;;;;12.58;nan;100818.44;5036184;28;19921;-84
2023/12/12 10:19:32;;;;;;;;;;;;;;;12.60;nan;100816.28;5025274;28;20029;-85
2023/12/12 10:22:04;;;;;;;;;;;;;;;12.62;nan;100816.84;5036305;28;19936;-84
2023/12/12 10:24:29;;;;;;;;;;;;;;;12.63;nan;100818.47;5031082;28;19921;-85
2023/12/12 10:26:55;;;;;;;;;;;;;;;12.65;nan;100810.94;5038730;28;19978;-84
2023/12/12 10:29:20;;;;;;;;;;;;;;;12.64;nan;100812.81;5035861;28;20304;-84
2023/12/12 10:31:46;;;;;;;;;;;;;;;12.65;nan;100813.63;5034032;28;20316;-84
2023/12/12 10:34:11;;;;;;;;;;;;;;;12.65;nan;100813.63;5038708;28;20542;-84
2023/12/12 10:36:37;;;;;;;;;;;;;;;12.64;nan;100815.50;5037254;28;19990;-84
2023/12/12 10:39:13;;;;;;;;;;;;;;;12.65;nan;100813.63;5038326;28;19920;-84
2023/12/12 10:41:38;;;;;;;;;;;;;;;12.64;nan;100812.81;5037219;28;19958;-85
2023/12/12 10:44:05;;;;;;;;;;;;;;;12.62;nan;100808.78;5034350;28;19921;-84
2023/12/12 10:46:32;;;;;;;;;;;;;;;12.63;nan;100810.38;5036811;28;19971;-84
2023/12/12 10:48:58;;;;;;;;;;;;;;;12.62;nan;100812.28;5037649;28;19928;-84
2023/12/12 10:51:25;;;;;;;;;;;;;;;12.63;nan;100807.72;5034105;28;19921;-84
2023/12/12 10:53:51;;;;;;;;;;;;;;;12.64;nan;100804.75;5033361;28;20377;-84
2023/12/12 10:56:17;;;;;;;;;;;;;;;12.64;nan;100807.44;5036715;28;20391;-84
2023/12/12 10:58:43;;;;;;;;;;;;;;;12.65;nan;100809.06;5035217;28;20078;-85
2023/12/12 11:01:09;;;;;;;;;;;;;;;12.66;nan;100812.56;5040505;28;20409;-84
2023/12/12 11:03:40;;;;;;;;;;;;;;;12.66;nan;100812.56;5039622;28;20381;-85
2023/12/12 11:06:06;;;;;;;;;;;;;;;12.68;nan;100810.41;5033378;28;19921;-84
2023/12/12 11:08:32;;;;;;;;;;;;;;;12.68;nan;100813.91;5035361;28;19917;-85
2023/12/12 11:11:18;;;;;;;;;;;;;;;12.69;nan;100809.34;5035083;28;20415;-83
2023/12/12 11:13:44;;;;;;;;;;;;;;;12.69;nan;100814.72;5039624;28;20429;-84
2023/12/12 11:16:10;;;;;;;;;;;;;;;12.71;nan;100807.19;5034890;28;20375;-84
2023/12/12 11:18:41;;;;;;;;;;;;;;;12.70;nan;100800.22;5035792;28;19964;-84
2023/12/12 11:21:06;;;;;;;;;;;;;;;12.70;nan;100801.00;5036448;28;19924;-84
2023/12/12 11:23:53;;;;;;;;;;;;;;;12.71;nan;100799.13;5033274;28;20304;-84
2023/12/12 11:26:19;;;;;;;;;;;;;;;12.71;nan;100802.63;5033149;28;19916;-84
2023/12/12 11:28:45;;;;;;;;;;;;;;;12.71;nan;100797.25;5053349;28;20419;-84
2023/12/12 11:31:10;;;;;;;;;;;;;;;12.73;nan;100794.31;5036127;28;19974;-84
2023/12/12 11:33:53;;;;;;;;;;;;;;;12.75;nan;100802.09;5038096;28;19921;-84
2023/12/12 11:36:25;;;;;;;;;;;;;;;12.76;nan;100799.19;5039283;28;19927;-84
2023/12/12 11:38:53;;;;;;;;;;;;;;;12.75;nan;100802.94;5040176;28;19921;-84
2023/12/12 11:41:19;;;;;;;;;;;;;;;12.74;nan;100795.91;5034538;28;20400;-84
2023/12/12 11:43:45;;;;;;;;;;;;;;;12.74;nan;100790.53;5042433;28;19943;-85
2023/12/12 11:46:19;;;;;;;;;;;;;;;12.76;nan;100795.69;5039828;28;19963;-84
2023/12/12 11:48:44;;;;;;;;;;;;;;;12.75;nan;100794.88;5037781;28;19947;-85
2023/12/12 11:51:33;;;;;;;;;;;;;;;12.76;nan;100793.81;5035508;28;19920;-84
2023/12/12 11:53:58;;;;;;;;;;;;;;;12.77;nan;100790.03;5027229;28;20401;-84
2023/12/12 11:56:24;;;;;;;;;;;;;;;12.77;nan;100798.13;5039085;28;19931;-84
2023/12/12 11:58:52;;;;;;;;;;;;;;;12.75;nan;100786.81;5036222;28;19924;-84
2023/12/12 12:01:25;;;;;;;;;;;;;;;12.75;nan;100785.97;5036606;28;20319;-84
2023/12/12 12:03:51;;;;;;;;;;;;;;;12.76;nan;100791.13;5033545;28;19921;-84
2023/12/12 12:06:17;;;;;;;;;;;;;;;12.77;nan;100776.59;5040268;28;20381;-84
2023/12/12 12:08:42;;;;;;;;;;;;;;;12.80;nan;100772.56;5038973;28;20418;-85
2023/12/12 12:11:07;;;;;;;;;;;;;;;12.81;nan;100772.31;5041376;28;19920;-84
2023/12/12 12:13:39;;;;;;;;;;;;;;;12.81;nan;100771.50;5044706;28;20439;-84
2023/12/12 12:16:05;;;;;;;;;;;;;;;12.79;nan;100771.78;5041785;28;19913;-85
2023/12/12 12:18:30;;;;;;;;;;;;;;;12.78;nan;100772.03;5036536;28;19925;-84
2023/12/12 12:20:57;;;;;;;;;;;;;;;12.78;nan;100778.22;5040970;28;19925;-84
2023/12/12 12:23:22;;;;;;;;;;;;;;;12.79;nan;100777.16;5038022;28;19917;-84
2023/12/12 12:25:47;;;;;;;;;;;;;;;12.82;nan;100775.81;5043614;28;20000;-85
2023/12/12 12:28:13;;;;;;;;;;;;;;;12.82;nan;100771.25;5040723;28;19921;-84
2023/12/12 12:30:45;;;;;;;;;;;;;;;12.82;nan;100773.13;5035906;28;19987;-84
2023/12/12 12:33:11;;;;;;;;;;;;;;;12.80;nan;100773.38;5041099;28;19916;-84
2023/12/12 12:35:37;;;;;;;;;;;;;;;12.79;nan;100766.41;5038480;28;19925;-84
2023/12/12 12:38:21;;;;;;;;;;;;;;;12.80;nan;100768.00;5041316;28;20300;-84
2023/12/12 12:40:47;;;;;;;;;;;;;;;12.81;nan;100769.63;5041391;28;19934;-84
2023/12/12 12:43:17;;;;;;;;;;;;;;;12.81;nan;100771.50;5041988;28;19921;-85
2023/12/12 12:45:42;;;;;;;;;;;;;;;12.81;nan;100774.19;5037305;28;19927;-85
2023/12/12 12:48:08;;;;;;;;;;;;;;;12.81;nan;100760.75;5038519;28;20387;-84
2023/12/12 12:50:33;;;;;;;;;;;;;;;12.81;nan;100764.25;5037755;28;19936;-84
2023/12/12 12:52:58;;;;;;;;;;;;;;;12.81;nan;100758.06;5039343;28;19913;-84